createdAt,value
2023-02-25T00:04:38.920Z,2
2023-02-25T00:11:02.347Z,14
2023-02-25T00:16:51.474Z,6
2023-02-25T00:22:30.168Z,8
2023-02-25T00:28:18.688Z,10
2023-02-25T00:34:14.151Z,2
2023-02-25T00:39:53.501Z,12
2023-02-25T00:45:39.423Z,0
2023-02-25T00:51:14.438Z,0
2023-02-25T00:56:54.828Z,2
2023-02-25T01:02:30.811Z,2
2023-02-25T01:08:29.241Z,2
2023-02-25T01:14:24.367Z,2
2023-02-25T01:20:13.368Z,0
2023-02-25T01:25:53.807Z,0
2023-02-25T01:32:11.093Z,4
2023-02-25T01:37:58.027Z,0
2023-02-25T01:43:33.254Z,0
2023-02-25T01:49:10.206Z,8
2023-02-25T01:54:45.214Z,14
2023-02-25T02:00:23.015Z,20
2023-02-25T02:06:01.676Z,30
2023-02-25T02:11:44.448Z,10
2023-02-25T02:17:20.602Z,16
2023-02-25T02:22:56.507Z,4
2023-02-25T02:28:37.376Z,4
2023-02-25T02:34:13.879Z,0
2023-02-25T02:40:07.071Z,0
2023-02-25T02:46:46.291Z,4
2023-02-25T05:38:29.998Z,0
2023-02-25T05:44:05.570Z,0
2023-02-25T05:49:40.726Z,0
2023-02-25T05:55:28.569Z,0
2023-02-25T06:01:04.688Z,0
2023-02-25T06:06:40.036Z,0
2023-02-25T06:12:41.306Z,2
2023-02-25T06:18:20.488Z,0
2023-02-25T06:24:00.681Z,0
2023-02-25T06:29:39.893Z,2
2023-02-25T06:35:24.688Z,0
2023-02-25T06:41:02.477Z,4
2023-02-25T06:46:49.470Z,4
2023-02-25T06:52:24.621Z,0
2023-02-25T06:58:14.170Z,2
2023-02-25T07:03:51.698Z,0
2023-02-25T07:09:27.737Z,0
2023-02-25T07:15:02.936Z,0
2023-02-25T07:20:38.072Z,0
2023-02-25T07:26:13.291Z,0
2023-02-25T07:31:50.160Z,0
2023-02-25T07:37:58.313Z,0
2023-02-25T07:43:37.418Z,0
2023-02-25T07:49:17.844Z,6
2023-02-25T07:55:17.442Z,2
2023-02-25T08:01:09.687Z,10
2023-02-25T08:07:00.285Z,4
2023-02-25T08:12:45.250Z,16
2023-02-25T08:18:23.015Z,18
2023-02-25T08:23:58.338Z,24
2023-02-25T08:29:34.020Z,20
2023-02-25T08:35:16.859Z,18
2023-02-25T08:40:58.212Z,28
2023-02-25T08:46:41.454Z,30
2023-02-25T08:52:17.844Z,58
2023-02-25T08:57:52.668Z,24
2023-02-25T09:03:29.317Z,43
2023-02-25T09:09:17.973Z,25
2023-02-25T09:14:56.837Z,10
2023-02-25T09:20:32.234Z,10
2023-02-25T09:26:07.138Z,16
2023-02-25T09:31:52.592Z,10
2023-02-25T09:37:31.322Z,2
2023-02-25T09:43:07.844Z,0
2023-02-25T09:48:47.559Z,2
2023-02-25T09:54:23.663Z,0
2023-02-25T10:00:02.626Z,0
2023-02-25T10:06:08.648Z,0
2023-02-25T10:12:05.908Z,2
2023-02-25T10:17:53.406Z,0
2023-02-25T10:23:48.936Z,10
2023-02-25T10:29:31.295Z,0
2023-02-25T10:35:07.554Z,4
2023-02-25T10:40:42.505Z,2
2023-02-25T10:46:41.055Z,0
2023-02-25T10:52:22.308Z,0
2023-02-25T10:57:57.842Z,0
2023-02-25T11:03:52.325Z,2
2023-02-25T11:09:29.384Z,2
2023-02-25T11:15:04.417Z,0
2023-02-25T11:20:57.126Z,2
2023-02-25T11:26:46.755Z,2
2023-02-25T11:32:23.873Z,2
2023-02-25T11:38:01.618Z,4
2023-02-25T11:43:36.912Z,2
2023-02-25T11:49:15.519Z,0
2023-02-25T11:55:06.982Z,4
2023-02-25T12:00:53.454Z,0
2023-02-25T12:06:37.629Z,2
2023-02-25T12:12:27.059Z,2
2023-02-25T12:23:55.208Z,4
2023-02-25T12:29:30.748Z,4
2023-02-25T12:35:05.609Z,6
2023-02-25T12:40:47.712Z,4
2023-02-25T12:46:23.373Z,0
2023-02-25T12:52:05.141Z,0
2023-02-25T12:57:40.669Z,2
2023-02-25T13:03:45.754Z,2
2023-02-25T13:09:21.941Z,4
2023-02-25T13:15:22.934Z,4
2023-02-25T13:21:12.009Z,0
2023-02-25T13:27:30.466Z,0
2023-02-25T13:33:07.854Z,4
2023-02-25T13:38:46.273Z,0
2023-02-25T13:44:23.958Z,2
2023-02-25T13:50:09.595Z,4
2023-02-25T13:55:54.931Z,6
2023-02-25T14:01:31.189Z,0
2023-02-25T14:07:28.240Z,0
2023-02-25T14:13:01.507Z,0
2023-02-25T14:18:42.328Z,0
2023-02-25T14:24:25.521Z,2
2023-02-25T14:30:03.293Z,0
2023-02-25T14:35:38.451Z,0
2023-02-25T14:41:24.402Z,0
2023-02-25T14:47:03.940Z,4
2023-02-25T14:53:29.055Z,0
2023-02-25T14:59:04.940Z,0
2023-02-25T15:04:51.951Z,0
2023-02-25T15:10:27.474Z,2
2023-02-25T15:16:03.716Z,0
2023-02-25T15:21:39.440Z,4
2023-02-25T15:27:15.754Z,0
2023-02-25T15:32:58.117Z,0
2023-02-25T15:38:33.646Z,0
2023-02-25T15:44:24.012Z,2
2023-02-25T15:50:08.212Z,2
2023-02-25T15:55:43.152Z,0
2023-02-25T16:01:28.131Z,0
2023-02-25T16:07:28.634Z,4
2023-02-25T16:13:03.278Z,4
2023-02-25T16:18:39.071Z,2
2023-02-25T16:24:34.817Z,6
2023-02-25T16:30:46.294Z,6
2023-02-25T16:36:23.535Z,4
2023-02-25T16:41:59.601Z,8
2023-02-25T16:47:36.329Z,6
2023-02-25T16:53:14.781Z,2
2023-02-25T16:58:57.333Z,2
2023-02-25T17:04:47.334Z,6
2023-02-25T17:10:23.481Z,4
2023-02-25T17:16:21.321Z,2
2023-02-25T17:22:21.340Z,10
2023-02-25T17:27:56.362Z,8
2023-02-25T17:33:51.302Z,15
2023-02-25T17:39:26.603Z,4
2023-02-25T17:45:16.616Z,6
2023-02-25T17:50:51.576Z,10
2023-02-25T17:56:28.166Z,6
2023-02-25T18:02:11.100Z,6
2023-02-25T18:07:46.610Z,2
2023-02-25T18:14:09.343Z,8
2023-02-25T18:19:50.249Z,22
2023-02-25T18:25:34.886Z,10
2023-02-25T18:31:19.769Z,6
2023-02-25T18:37:15.572Z,4
2023-02-25T18:43:06.916Z,0
2023-02-25T18:49:02.698Z,2
2023-02-25T18:54:37.649Z,0
2023-02-25T19:00:14.759Z,4
2023-02-25T19:05:50.148Z,0
2023-02-25T19:11:25.582Z,12
2023-02-25T19:17:00.468Z,6
2023-02-25T19:22:36.932Z,22
2023-02-25T19:28:13.322Z,12
2023-02-25T19:33:48.557Z,6
2023-02-25T19:39:24.094Z,2
2023-02-25T19:45:00.895Z,6
2023-02-25T19:50:36.504Z,28
2023-02-25T19:56:12.096Z,20
2023-02-25T20:01:47.353Z,4
2023-02-25T20:07:22.419Z,4
2023-02-25T20:12:57.436Z,20
2023-02-25T20:18:40.410Z,34
2023-02-25T20:24:15.432Z,28
2023-02-25T20:29:51.197Z,20
2023-02-25T20:35:26.851Z,20
2023-02-25T20:41:03.936Z,14
2023-02-25T20:46:39.451Z,24
2023-02-25T20:52:14.663Z,16
2023-02-25T20:57:50.053Z,18
2023-02-25T21:03:25.312Z,28
2023-02-25T21:09:25.424Z,10
2023-02-25T21:15:01.549Z,64
2023-02-25T21:20:41.306Z,16
2023-02-25T21:26:16.259Z,32
2023-02-25T21:31:53.001Z,28
2023-02-25T21:37:28.631Z,16
2023-02-25T21:43:04.588Z,16
2023-02-25T21:48:39.722Z,2
2023-02-25T21:54:15.635Z,4
2023-02-25T21:59:51.641Z,0
2023-02-25T22:05:26.887Z,0
2023-02-25T22:11:03.198Z,6
2023-02-25T22:16:38.840Z,2
2023-02-25T22:22:15.772Z,6
2023-02-25T22:27:51.045Z,38
2023-02-25T22:33:28.856Z,14
2023-02-25T22:39:04.255Z,6
2023-02-25T22:44:42.569Z,10
2023-02-25T22:50:17.908Z,20
2023-02-25T22:55:53.439Z,14
2023-02-25T23:01:29.416Z,30
2023-02-25T23:07:04.899Z,16
2023-02-25T23:12:48.948Z,8
2023-02-25T23:18:24.576Z,6
2023-02-25T23:24:09.247Z,16
2023-02-25T23:29:44.488Z,18
2023-02-25T23:35:25.505Z,30
2023-02-25T23:41:01.856Z,55
2023-02-25T23:46:41.682Z,22
2023-02-25T23:52:37.752Z,22
2023-02-25T23:58:13.122Z,28
